Time;durP1;ratioP1;P1;durP2;ratioP2;P2;SDS_P1;SDS_P2;PMS_P1;PMS_P2;Temp;Humidity;BMP_temperature;BMP_pressure;BME280_temperature;BME280_humidity;BME280_pressure;Samples;Min_cycle;Max_cycle;Signal;HPM_P1;HPM_P2
2021/03/01 00:00:45;;;;;;;4.65;1.90;;;7.90;61.80;;;;;;5056068;28;20043;-88
2021/03/01 00:03:11;;;;;;;1.52;0.70;;;7.80;62.00;;;;;;5062305;28;20036;-87
2021/03/01 00:05:37;;;;;;;3.40;1.10;;;7.80;62.00;;;;;;5059390;28;20055;-87
2021/03/01 00:08:04;;;;;;;5.55;1.70;;;7.70;62.00;;;;;;5045055;28;20032;-88
2021/03/01 00:10:30;;;;;;;2.33;0.60;;;7.70;62.00;;;;;;5040919;28;20024;-87
2021/03/01 00:12:56;;;;;;;5.72;1.35;;;7.70;62.00;;;;;;5058290;28;20031;-88
2021/03/01 00:15:23;;;;;;;6.45;1.90;;;7.70;62.00;;;;;;5059782;28;20063;-88
2021/03/01 00:17:49;;;;;;;4.05;1.30;;;7.60;62.00;;;;;;5051939;28;20033;-87
2021/03/01 00:20:15;;;;;;;3.53;1.25;;;7.60;62.10;;;;;;5038264;28;20036;-87
2021/03/01 00:22:42;;;;;;;4.43;1.52;;;7.60;62.00;;;;;;5046078;28;20393;-88
2021/03/01 00:25:08;;;;;;;1.85;1.33;;;7.70;62.20;;;;;;5050449;28;20048;-88
2021/03/01 00:27:35;;;;;;;3.67;1.35;;;7.70;62.10;;;;;;5052497;28;20028;-88
2021/03/01 00:30:01;;;;;;;3.03;1.48;;;7.60;62.00;;;;;;5054387;28;20052;-87
2021/03/01 00:32:27;;;;;;;2.70;1.23;;;7.70;62.20;;;;;;5049580;28;20048;-87
2021/03/01 00:34:53;;;;;;;3.35;1.25;;;7.60;62.00;;;;;;5034077;28;20083;-88
2021/03/01 00:37:19;;;;;;;2.42;0.75;;;7.70;62.10;;;;;;5046533;28;20033;-87
2021/03/01 00:39:45;;;;;;;3.65;0.75;;;7.70;62.20;;;;;;5039520;28;20401;-88
2021/03/01 00:42:11;;;;;;;3.67;1.30;;;7.60;62.20;;;;;;5038815;28;20040;-87
2021/03/01 00:44:37;;;;;;;2.13;0.80;;;7.60;62.20;;;;;;5057473;28;20039;-88
2021/03/01 00:47:03;;;;;;;1.58;1.10;;;7.60;62.30;;;;;;5038879;28;20029;-87
2021/03/01 00:49:29;;;;;;;2.25;1.17;;;7.60;62.40;;;;;;5051924;28;20492;-87
2021/03/01 00:51:55;;;;;;;3.97;1.30;;;7.50;62.40;;;;;;5046263;28;20040;-89
2021/03/01 00:54:22;;;;;;;3.00;1.73;;;7.50;62.60;;;;;;5046451;28;20099;-87
2021/03/01 00:56:48;;;;;;;5.25;1.25;;;7.50;62.60;;;;;;5050066;28;20062;-87
2021/03/01 00:59:14;;;;;;;2.20;0.93;;;7.40;62.60;;;;;;5033761;28;20060;-88
2021/03/01 01:01:40;;;;;;;3.92;1.48;;;7.40;62.70;;;;;;5043266;28;20401;-87
2021/03/01 01:04:06;;;;;;;3.97;1.33;;;7.40;62.80;;;;;;5027280;28;20045;-87
2021/03/01 01:06:32;;;;;;;3.80;1.10;;;7.30;62.80;;;;;;5037186;28;20392;-87
2021/03/01 01:08:58;;;;;;;6.50;1.52;;;7.30;63.00;;;;;;5050324;28;20037;-87
2021/03/01 01:11:24;;;;;;;0.70;0.45;;;7.20;63.10;;;;;;5056453;28;20388;-87
2021/03/01 01:13:51;;;;;;;0.93;0.43;;;7.20;63.30;;;;;;5059481;28;20083;-87
2021/03/01 01:16:17;;;;;;;1.05;0.77;;;7.10;63.40;;;;;;5053574;28;20064;-87
2021/03/01 01:18:43;;;;;;;5.97;0.93;;;7.10;63.50;;;;;;5030929;28;20041;-87
2021/03/01 01:21:09;;;;;;;5.60;1.37;;;7.10;63.60;;;;;;5051292;28;20039;-87
2021/03/01 01:23:35;;;;;;;2.53;0.83;;;7.00;63.60;;;;;;5013699;28;20041;-87
2021/03/01 01:26:01;;;;;;;3.05;1.63;;;7.00;63.60;;;;;;5060964;28;20028;-87
2021/03/01 01:28:27;;;;;;;1.15;0.57;;;7.00;63.60;;;;;;5059197;28;20029;-87
2021/03/01 01:30:53;;;;;;;1.17;0.52;;;7.00;63.70;;;;;;5036501;28;20391;-87
2021/03/01 01:33:19;;;;;;;2.03;0.95;;;7.00;63.70;;;;;;5054807;28;20040;-87
2021/03/01 01:35:45;;;;;;;2.13;1.10;;;7.00;63.70;;;;;;5035817;28;20488;-88
2021/03/01 01:38:11;;;;;;;1.52;0.98;;;7.00;63.70;;;;;;5053653;28;20029;-87
2021/03/01 01:40:37;;;;;;;3.27;0.67;;;7.00;63.70;;;;;;5017768;28;20049;-87
2021/03/01 01:43:04;;;;;;;1.80;0.87;;;7.00;63.70;;;;;;5049745;28;20048;-87
2021/03/01 01:45:30;;;;;;;6.65;1.27;;;7.00;63.60;;;;;;5054392;28;20037;-87
2021/03/01 01:47:56;;;;;;;7.18;1.75;;;7.00;63.60;;;;;;5054233;28;20050;-87
2021/03/01 01:50:23;;;;;;;3.43;1.70;;;7.00;63.60;;;;;;5061074;28;20033;-87
2021/03/01 01:52:50;;;;;;;2.35;1.35;;;7.00;63.60;;;;;;5050743;28;20025;-87
2021/03/01 01:55:17;;;;;;;10.45;1.98;;;7.10;63.60;;;;;;5056747;28;20388;-87
2021/03/01 01:57:43;;;;;;;6.68;1.17;;;7.10;63.60;;;;;;5044386;28;20035;-87
2021/03/01 02:02:52;;;;;;;3.70;0.75;;;7.10;63.70;;;;;;5043702;28;20033;-86
2021/03/01 02:05:18;;;;;;;1.70;0.32;;;7.10;63.80;;;;;;5039239;28;20048;-87
2021/03/01 02:07:54;;;;;;;8.07;1.85;;;7.10;63.60;;;;;;5051714;28;20036;-87
2021/03/01 02:10:50;;;;;;;3.33;1.58;;;7.10;63.70;;;;;;5032148;28;20045;-87
2021/03/01 02:13:38;;;;;;;6.40;1.38;;;7.10;63.70;;;;;;5042963;28;20488;-87
2021/03/01 02:16:14;;;;;;;5.78;1.30;;;7.00;63.70;;;;;;5052470;28;20521;-88
2021/03/01 02:18:40;;;;;;;4.07;1.70;;;7.00;63.70;;;;;;5044436;28;20044;-87
2021/03/01 02:21:10;;;;;;;4.57;1.20;;;7.00;63.70;;;;;;5050179;28;20037;-87
2021/03/01 02:23:39;;;;;;;2.50;1.00;;;7.00;63.80;;;;;;5017542;28;20030;-87
2021/03/01 02:26:16;;;;;;;2.42;1.13;;;7.00;63.90;;;;;;5052503;28;20044;-87
2021/03/01 02:28:48;;;;;;;2.13;0.82;;;7.00;63.90;;;;;;5061423;28;20385;-87
2021/03/01 02:31:14;;;;;;;3.83;1.20;;;7.00;63.90;;;;;;5056578;28;20033;-87
2021/03/01 02:33:46;;;;;;;6.47;0.45;;;7.00;63.90;;;;;;5042985;28;20103;-87
2021/03/01 02:36:15;;;;;;;1.70;0.55;;;7.00;64.00;;;;;;5035840;28;20478;-86
2021/03/01 02:38:41;;;;;;;3.83;1.27;;;7.00;64.00;;;;;;5040928;28;20028;-87
2021/03/01 02:41:07;;;;;;;3.40;0.70;;;7.00;64.00;;;;;;5030267;28;20497;-87
2021/03/01 02:43:33;;;;;;;4.60;1.77;;;7.00;64.10;;;;;;5048681;28;20032;-87
2021/03/01 02:46:00;;;;;;;2.88;1.38;;;7.00;64.10;;;;;;5052143;28;20041;-86
2021/03/01 02:48:26;;;;;;;2.10;1.35;;;7.00;64.10;;;;;;5047974;28;20073;-87
2021/03/01 02:50:53;;;;;;;7.32;1.55;;;6.90;64.10;;;;;;5056168;28;20023;-87
2021/03/01 02:53:19;;;;;;;3.65;1.80;;;6.90;64.10;;;;;;5040542;28;20421;-86
2021/03/01 02:55:46;;;;;;;1.67;0.95;;;6.80;64.10;;;;;;5034318;28;20029;-87
2021/03/01 02:58:13;;;;;;;3.03;1.45;;;6.80;64.20;;;;;;5052388;28;20028;-87
2021/03/01 03:00:40;;;;;;;2.67;0.90;;;6.80;64.20;;;;;;5037530;28;20033;-87
2021/03/01 03:03:07;;;;;;;1.50;0.80;;;6.80;64.20;;;;;;5033566;28;20126;-87
2021/03/01 03:05:33;;;;;;;9.10;2.08;;;6.80;64.30;;;;;;5043151;28;20025;-86
2021/03/01 03:07:59;;;;;;;2.70;1.15;;;6.80;64.30;;;;;;5038364;28;20029;-87
2021/03/01 03:10:25;;;;;;;2.83;1.38;;;6.80;64.40;;;;;;5051315;28;20848;-87
2021/03/01 03:12:51;;;;;;;9.32;1.58;;;6.80;64.40;;;;;;5053449;28;20032;-87
2021/03/01 03:15:19;;;;;;;1.30;1.15;;;6.70;64.40;;;;;;5049624;28;20512;-87
2021/03/01 03:17:45;;;;;;;6.90;2.10;;;6.70;64.40;;;;;;5061398;28;20576;-87
2021/03/01 03:20:11;;;;;;;5.72;1.13;;;6.70;64.50;;;;;;5029338;28;20048;-87
2021/03/01 03:22:37;;;;;;;3.28;1.63;;;6.70;64.50;;;;;;5049573;28;20039;-86
2021/03/01 03:25:04;;;;;;;1.83;1.33;;;6.70;64.50;;;;;;5055663;28;20059;-87
2021/03/01 03:27:30;;;;;;;4.95;1.25;;;6.70;64.50;;;;;;5059914;28;20025;-87
2021/03/01 03:29:56;;;;;;;2.80;1.52;;;6.70;65.30;;;;;;5050108;28;20025;-87
2021/03/01 03:32:22;;;;;;;6.10;1.33;;;6.70;64.60;;;;;;5050530;28;20434;-87
2021/03/01 03:34:48;;;;;;;5.07;0.85;;;6.60;64.60;;;;;;5027693;28;20041;-86
2021/03/01 03:37:17;;;;;;;4.00;1.60;;;6.60;64.70;;;;;;5021511;28;20048;-87
2021/03/01 03:39:46;;;;;;;3.92;1.10;;;6.60;64.70;;;;;;5026139;28;20049;-87
2021/03/01 03:42:16;;;;;;;2.37;1.17;;;6.50;64.70;;;;;;5033113;28;20044;-87
2021/03/01 03:44:42;;;;;;;3.27;1.30;;;6.50;64.70;;;;;;5037376;28;20036;-86
2021/03/01 03:47:08;;;;;;;2.33;0.80;;;6.50;64.80;;;;;;5038259;28;20636;-87
2021/03/01 03:49:35;;;;;;;3.88;1.58;;;6.50;64.80;;;;;;5046739;28;20033;-87
2021/03/01 03:52:03;;;;;;;3.05;1.55;;;6.40;64.90;;;;;;5049733;28;20032;-87
2021/03/01 03:54:29;;;;;;;3.50;1.53;;;6.40;64.90;;;;;;5058589;28;20033;-86
2021/03/01 03:56:56;;;;;;;2.83;1.57;;;6.40;64.90;;;;;;5024598;28;20402;-87
2021/03/01 03:59:27;;;;;;;6.70;2.00;;;6.40;65.00;;;;;;5050404;28;20037;-87
2021/03/01 04:01:53;;;;;;;2.97;1.88;;;6.30;64.90;;;;;;5064993;28;20040;-87
2021/03/01 04:04:20;;;;;;;5.50;1.73;;;6.30;65.00;;;;;;5037266;28;20033;-86
2021/03/01 04:06:47;;;;;;;2.87;1.00;;;6.30;65.00;;;;;;5053407;28;20044;-87
2021/03/01 04:09:14;;;;;;;5.37;1.83;;;6.30;65.00;;;;;;5041258;28;20036;-86
2021/03/01 04:11:42;;;;;;;3.07;1.33;;;6.30;65.10;;;;;;5016955;28;20033;-87
2021/03/01 04:14:08;;;;;;;1.27;0.93;;;6.30;65.00;;;;;;5034683;28;20036;-87
2021/03/01 04:16:34;;;;;;;5.10;1.33;;;6.30;65.10;;;;;;5050337;28;20032;-87
2021/03/01 04:19:04;;;;;;;4.30;1.67;;;6.30;65.10;;;;;;5050470;28;20033;-86
2021/03/01 04:21:31;;;;;;;3.43;1.23;;;6.30;65.10;;;;;;5043558;28;20033;-86
2021/03/01 04:23:57;;;;;;;16.33;2.00;;;6.30;65.10;;;;;;5038511;28;20286;-86
2021/03/01 04:26:23;;;;;;;1.40;0.90;;;6.30;65.10;;;;;;5040804;28;20041;-86
2021/03/01 04:28:50;;;;;;;1.90;1.17;;;6.30;65.10;;;;;;5046880;28;20048;-86
2021/03/01 04:31:16;;;;;;;2.90;1.83;;;6.30;65.20;;;;;;5047105;28;20037;-84
2021/03/01 04:33:43;;;;;;;1.70;1.10;;;6.20;65.20;;;;;;5033332;28;20492;-84
2021/03/01 04:36:09;;;;;;;2.50;1.00;;;6.20;65.20;;;;;;5037028;28;20402;-84
2021/03/01 04:38:36;;;;;;;1.83;1.23;;;6.20;65.20;;;;;;5058179;28;20025;-84
2021/03/01 04:41:02;;;;;;;1.47;0.57;;;6.20;65.20;;;;;;5037304;28;20060;-83
2021/03/01 04:43:28;;;;;;;2.73;2.03;;;6.10;65.30;;;;;;5056077;28;20037;-83
2021/03/01 04:45:54;;;;;;;2.40;1.13;;;6.10;65.40;;;;;;5053519;28;20083;-82
2021/03/01 04:48:24;;;;;;;4.37;1.37;;;6.10;65.50;;;;;;5040043;28;20032;-84
2021/03/01 04:50:51;;;;;;;2.37;1.27;;;6.00;65.60;;;;;;5036221;28;20048;-84
2021/03/01 04:53:17;;;;;;;3.37;1.87;;;5.90;65.70;;;;;;5058698;28;20465;-84
2021/03/01 04:55:44;;;;;;;1.17;0.50;;;5.90;65.60;;;;;;5047743;28;20029;-84
2021/03/01 04:58:11;;;;;;;0.90;0.43;;;5.90;65.70;;;;;;5034973;28;20025;-82
2021/03/01 05:00:37;;;;;;;0.80;0.40;;;5.90;65.60;;;;;;5036579;28;20050;-82
2021/03/01 05:03:04;;;;;;;2.60;1.00;;;5.90;65.50;;;;;;5037954;28;20032;-83
2021/03/01 05:05:30;;;;;;;3.93;1.30;;;6.00;65.60;;;;;;5038238;28;20044;-82
2021/03/01 05:08:00;;;;;;;1.33;0.43;;;6.00;65.60;;;;;;5014112;28;20475;-82
2021/03/01 05:10:26;;;;;;;3.20;2.33;;;6.00;65.70;;;;;;5053231;28;20032;-86
2021/03/01 05:12:52;;;;;;;6.47;1.83;;;6.00;65.70;;;;;;5036815;28;20042;-83
2021/03/01 05:15:19;;;;;;;4.83;1.73;;;5.90;65.60;;;;;;5049174;28;20043;-82
2021/03/01 05:17:45;;;;;;;2.87;1.30;;;6.00;65.70;;;;;;5053165;28;20025;-82
2021/03/01 05:20:12;;;;;;;7.53;1.63;;;6.00;65.70;;;;;;5059393;28;20048;-84
2021/03/01 05:22:38;;;;;;;0.93;0.50;;;6.00;65.70;;;;;;5053738;28;20027;-83
2021/03/01 05:25:05;;;;;;;1.77;1.13;;;6.00;65.70;;;;;;5051262;28;20039;-84
2021/03/01 05:27:33;;;;;;;5.17;1.53;;;6.00;65.70;;;;;;5030461;28;20465;-83
2021/03/01 05:30:00;;;;;;;1.47;0.87;;;5.90;65.70;;;;;;5041204;28;20033;-83
2021/03/01 05:32:26;;;;;;;3.70;1.10;;;5.90;65.80;;;;;;5061288;28;20048;-85
2021/03/01 05:34:52;;;;;;;2.67;1.63;;;5.90;65.80;;;;;;5036309;28;20496;-85
2021/03/01 05:37:18;;;;;;;3.33;1.00;;;5.90;65.80;;;;;;5037859;28;20041;-83
2021/03/01 05:39:44;;;;;;;1.70;1.17;;;5.90;65.80;;;;;;5059619;28;20032;-83
2021/03/01 05:42:12;;;;;;;4.00;1.33;;;5.90;65.80;;;;;;5041531;28;20137;-83
2021/03/01 05:44:40;;;;;;;9.17;1.37;;;5.90;65.90;;;;;;5059981;28;20025;-86
2021/03/01 05:47:06;;;;;;;4.67;1.00;;;5.90;65.90;;;;;;5037790;28;20490;-86
2021/03/01 05:49:32;;;;;;;1.77;0.63;;;5.90;65.90;;;;;;5034271;28;20037;-86
2021/03/01 05:51:58;;;;;;;3.13;1.33;;;5.90;65.90;;;;;;5030170;28;20076;-86
2021/03/01 05:54:26;;;;;;;4.77;1.47;;;5.80;65.90;;;;;;5039349;28;20033;-86
2021/03/01 05:56:53;;;;;;;4.33;1.37;;;5.80;65.90;;;;;;5041588;28;20025;-85
2021/03/01 05:59:19;;;;;;;3.50;0.73;;;5.80;66.00;;;;;;5032424;28;20041;-86
2021/03/01 06:01:45;;;;;;;2.10;1.30;;;5.80;66.00;;;;;;5052563;28;20425;-86
2021/03/01 06:04:12;;;;;;;2.13;1.23;;;5.70;66.00;;;;;;5044279;28;20033;-85
2021/03/01 06:06:38;;;;;;;5.93;1.03;;;5.70;66.10;;;;;;5054759;28;20367;-85
2021/03/01 06:09:05;;;;;;;2.57;1.40;;;5.60;66.10;;;;;;5038569;28;20037;-86
2021/03/01 06:11:31;;;;;;;3.83;1.63;;;5.60;66.20;;;;;;5059379;28;20036;-86
2021/03/01 06:14:00;;;;;;;4.73;1.37;;;5.60;66.30;;;;;;5052210;28;20028;-86
2021/03/01 06:16:28;;;;;;;1.80;0.90;;;5.60;66.20;;;;;;5049451;28;20041;-86
2021/03/01 06:18:54;;;;;;;3.07;0.80;;;5.60;66.30;;;;;;5053477;28;20033;-86
2021/03/01 06:21:22;;;;;;;2.10;1.07;;;5.60;66.30;;;;;;5055271;28;20044;-86
2021/03/01 06:23:48;;;;;;;1.37;0.90;;;5.60;66.40;;;;;;5052603;28;20036;-86
2021/03/01 06:26:28;;;;;;;2.37;1.27;;;5.60;66.30;;;;;;5035359;28;20471;-84
2021/03/01 06:29:14;;;;;;;2.67;1.37;;;5.50;66.30;;;;;;5049930;28;20025;-85
2021/03/01 06:31:47;;;;;;;4.70;1.30;;;5.50;66.40;;;;;;5057775;28;20025;-85
2021/03/01 06:34:24;;;;;;;1.47;0.87;;;5.50;66.30;;;;;;5052905;28;20036;-85
2021/03/01 06:37:06;;;;;;;1.40;0.67;;;5.50;66.40;;;;;;5050931;28;20520;-85
2021/03/01 06:39:35;;;;;;;;;;;5.50;66.50;;;;;;5058286;28;20040;-85
2021/03/01 06:42:30;;;;;;;5.07;2.13;;;5.50;66.40;;;;;;5050066;28;19924;-85
2021/03/01 06:44:56;;;;;;;4.17;2.57;;;5.40;66.30;;;;;;5031092;28;20037;-85
2021/03/01 06:47:59;;;;;;;3.30;1.67;;;5.40;66.30;;;;;;5063041;28;20039;-85
2021/03/01 06:50:42;;;;;;;2.27;1.30;;;5.40;66.50;;;;;;5044039;28;20031;-85
2021/03/01 06:53:12;;;;;;;2.63;1.57;;;5.40;66.50;;;;;;5051197;28;20029;-85
2021/03/01 06:55:39;;;;;;;5.80;1.27;;;5.40;66.40;;;;;;5051125;28;20036;-84
2021/03/01 06:58:15;;;;;;;2.03;1.10;;;5.40;66.50;;;;;;5050304;28;20029;-85
2021/03/01 07:00:41;;;;;;;2.00;1.33;;;5.40;66.50;;;;;;5050492;28;20037;-85
2021/03/01 07:03:28;;;;;;;2.87;1.33;;;5.40;66.50;;;;;;5056209;28;20089;-85
2021/03/01 07:05:55;;;;;;;2.63;0.83;;;5.40;66.50;;;;;;5052396;28;20051;-85
2021/03/01 07:08:32;;;;;;;1.77;1.23;;;5.40;66.50;;;;;;5036331;28;20036;-84
2021/03/01 07:10:58;;;;;;;1.83;1.23;;;5.40;66.60;;;;;;5052646;28;20025;-84
2021/03/01 07:13:29;;;;;;;9.90;2.20;;;5.40;66.60;;;;;;5049697;28;20482;-85
2021/03/01 07:15:55;;;;;;;5.03;0.67;;;5.40;66.50;;;;;;5056161;28;20452;-83
2021/03/01 07:18:21;;;;;;;6.53;1.50;;;5.40;66.50;;;;;;5056838;28;20458;-85
2021/03/01 07:20:48;;;;;;;3.20;1.67;;;5.40;66.50;;;;;;5051884;28;20045;-87
2021/03/01 07:23:16;;;;;;;4.80;1.57;;;5.50;66.50;;;;;;5037325;28;20028;-88
2021/03/01 07:25:45;;;;;;;2.30;1.50;;;5.50;66.50;;;;;;5040003;28;20024;-86
2021/03/01 07:28:17;;;;;;;8.13;1.47;;;5.50;66.40;;;;;;5050652;28;20028;-85
2021/03/01 07:30:44;;;;;;;1.83;1.10;;;5.60;66.40;;;;;;5054697;28;20488;-85
2021/03/01 07:33:14;;;;;;;1.77;0.87;;;5.60;66.30;;;;;;5040277;28;20017;-85
2021/03/01 07:35:43;;;;;;;3.00;0.93;;;5.70;67.10;;;;;;5048948;28;20036;-87
2021/03/01 07:38:09;;;;;;;6.30;2.60;;;5.70;66.30;;;;;;5055749;28;20032;-85
2021/03/01 07:40:36;;;;;;;0.87;0.57;;;5.80;66.40;;;;;;5050444;28;20500;-86
2021/03/01 07:43:05;;;;;;;4.60;1.77;;;5.70;66.30;;;;;;5050184;28;20056;-85
2021/03/01 07:45:31;;;;;;;3.27;1.47;;;5.70;66.40;;;;;;5054745;28;20049;-85
2021/03/01 07:48:01;;;;;;;2.53;1.00;;;5.70;66.40;;;;;;5043829;28;20032;-85
2021/03/01 07:50:37;;;;;;;3.10;1.70;;;5.70;66.30;;;;;;5056690;28;20025;-85
2021/03/01 07:53:04;;;;;;;1.37;0.67;;;5.90;66.30;;;;;;5039579;28;20044;-85
2021/03/01 07:55:30;;;;;;;4.10;1.97;;;6.20;65.60;;;;;;5015789;28;20044;-85
2021/03/01 07:58:05;;;;;;;5.17;0.90;;;6.60;64.80;;;;;;5047098;28;20036;-85
2021/03/01 08:00:35;;;;;;;3.13;1.13;;;7.00;63.90;;;;;;5054182;28;20045;-85
2021/03/01 08:03:21;;;;;;;2.55;1.08;;;7.40;63.10;;;;;;5051391;28;20068;-85
2021/03/01 08:05:53;;;;;;;1.40;0.67;;;7.80;62.40;;;;;;5049438;28;20596;-85
2021/03/01 08:08:40;;;;;;;5.00;1.02;;;8.30;61.90;;;;;;5020899;28;20060;-85
2021/03/01 08:11:07;;;;;;;7.72;1.38;;;8.80;61.70;;;;;;5053578;28;20036;-85
2021/03/01 08:13:33;;;;;;;2.63;1.38;;;9.20;61.70;;;;;;5034723;28;20390;-87
2021/03/01 08:16:23;;;;;;;0.73;0.50;;;9.60;61.60;;;;;;5046471;28;20033;-88
2021/03/01 08:18:57;;;;;;;4.68;1.08;;;10.00;62.10;;;;;;5041500;28;20033;-83
2021/03/01 08:21:23;;;;;;;0.22;0.10;;;10.40;62.50;;;;;;5031679;28;20040;-85
2021/03/01 08:23:49;;;;;;;2.75;1.02;;;10.70;62.60;;;;;;5049301;28;20021;-86
2021/03/01 08:26:31;;;;;;;2.60;0.98;;;10.90;63.00;;;;;;5050453;28;20032;-87
2021/03/01 08:29:01;;;;;;;5.90;1.60;;;11.10;63.50;;;;;;5045744;28;20144;-89
2021/03/01 08:31:29;;;;;;;0.35;0.25;;;11.40;63.40;;;;;;5049722;28;20033;-87
2021/03/01 08:34:26;;;;;;;13.73;1.67;;;11.60;63.00;;;;;;5044916;28;20033;-91
2021/03/01 08:36:53;;;;;;;5.82;1.52;;;11.70;63.30;;;;;;5038655;28;20497;-85
2021/03/01 08:39:51;;;;;;;6.00;2.78;;;11.60;63.40;;;;;;5035279;28;20377;-85
2021/03/01 08:42:51;;;;;;;2.67;1.58;;;11.50;63.90;;;;;;5035069;28;20376;-88
2021/03/01 08:45:44;;;;;;;4.13;0.75;;;11.50;64.10;;;;;;5037312;28;20025;-88
2021/03/01 08:48:18;;;;;;;2.05;0.70;;;11.60;64.20;;;;;;5039671;28;20036;-90
2021/03/01 08:50:45;;;;;;;3.67;2.08;;;11.70;64.50;;;;;;5031112;28;20626;-88
2021/03/01 08:53:17;;;;;;;4.32;1.83;;;11.70;64.50;;;;;;5025747;28;20029;-87
2021/03/01 08:55:44;;;;;;;7.78;2.20;;;11.60;64.10;;;;;;5044260;28;20044;-88
2021/03/01 08:58:12;;;;;;;4.95;1.08;;;11.70;64.50;;;;;;5046321;28;20033;-87
2021/03/01 09:00:59;;;;;;;1.65;1.02;;;11.90;64.30;;;;;;5022527;28;20466;-85
2021/03/01 09:03:29;;;;;;;5.30;1.23;;;12.00;63.60;;;;;;5037301;28;20406;-85
2021/03/01 09:06:05;;;;;;;4.75;1.77;;;12.00;63.20;;;;;;5048260;28;20021;-86
2021/03/01 09:08:39;;;;;;;2.63;1.35;;;12.00;63.30;;;;;;5046154;28;20048;-87
2021/03/01 09:11:29;;;;;;;5.30;1.77;;;12.20;63.20;;;;;;5013880;28;20037;-88
2021/03/01 09:14:03;;;;;;;6.60;1.48;;;12.40;62.80;;;;;;5043602;28;20370;-85
2021/03/01 09:16:32;;;;;;;0.43;0.22;;;12.70;62.10;;;;;;5045432;28;20044;-87
2021/03/01 09:19:00;;;;;;;1.92;0.95;;;12.80;61.80;;;;;;5033729;28;20025;-89
2021/03/01 09:21:26;;;;;;;6.10;1.65;;;12.80;61.30;;;;;;5048309;28;20037;-90
2021/03/01 09:23:53;;;;;;;8.07;1.08;;;12.80;61.30;;;;;;5047259;28;20037;-89
2021/03/01 09:26:19;;;;;;;4.32;2.00;;;12.80;61.10;;;;;;5048351;28;20512;-90
2021/03/01 09:28:45;;;;;;;1.15;0.85;;;12.90;60.90;;;;;;5056707;28;20513;-90
2021/03/01 09:31:12;;;;;;;2.90;1.33;;;12.90;60.70;;;;;;5041969;28;20494;-89
2021/03/01 09:33:39;;;;;;;7.82;2.47;;;12.90;60.50;;;;;;5035548;28;20028;-90
2021/03/01 09:36:05;;;;;;;2.25;0.75;;;12.90;60.70;;;;;;5064605;28;20029;-90
2021/03/01 09:38:32;;;;;;;3.97;1.25;;;13.00;60.20;;;;;;5045917;28;20036;-90
2021/03/01 09:41:02;;;;;;;3.53;0.95;;;13.00;59.80;;;;;;5031979;28;20052;-89
2021/03/01 09:43:28;;;;;;;2.22;1.00;;;12.90;59.70;;;;;;5024357;28;20034;-89
2021/03/01 09:45:54;;;;;;;0.15;0.08;;;12.80;59.90;;;;;;5020689;28;20033;-89
2021/03/01 09:48:20;;;;;;;4.28;1.50;;;12.70;60.00;;;;;;5013237;28;20036;-88
2021/03/01 09:50:46;;;;;;;23.45;1.75;;;12.60;60.00;;;;;;5048096;28;20501;-88
2021/03/01 09:53:15;;;;;;;4.18;1.33;;;12.70;60.00;;;;;;5031864;28;20036;-89
2021/03/01 09:55:42;;;;;;;2.67;0.82;;;12.80;59.70;;;;;;5041674;28;20056;-89
2021/03/01 09:58:28;;;;;;;2.15;1.13;;;12.90;59.60;;;;;;5025782;28;20033;-89
2021/03/01 10:01:11;;;;;;;0.95;0.85;;;13.00;59.40;;;;;;5021997;28;20048;-88
2021/03/01 10:03:42;;;;;;;4.47;1.10;;;13.00;59.30;;;;;;5020288;28;20482;-87
2021/03/01 10:06:09;;;;;;;12.05;3.58;;;13.00;59.20;;;;;;5031715;28;20032;-88
2021/03/01 10:08:35;;;;;;;7.32;1.67;;;13.10;59.30;;;;;;5015742;28;20455;-88
2021/03/01 10:11:01;;;;;;;2.08;0.70;;;13.20;59.10;;;;;;5017658;28;20044;-91
2021/03/01 10:13:29;;;;;;;3.55;1.17;;;13.30;58.80;;;;;;5038223;28;20490;-91
2021/03/01 10:15:55;;;;;;;3.55;1.20;;;13.40;58.60;;;;;;5050926;28;20513;-92
2021/03/01 10:18:27;;;;;;;3.03;0.80;;;13.40;58.60;;;;;;5055785;28;20478;-91
2021/03/01 10:20:58;;;;;;;;;;;13.50;58.60;;;;;;5035835;28;20405;-92
2021/03/01 10:23:41;;;;;;;3.97;1.70;;;13.60;58.50;;;;;;5055673;28;20373;-90
2021/03/01 10:26:17;;;;;;;2.28;1.00;;;13.70;58.30;;;;;;5032731;28;20039;-90
2021/03/01 10:28:53;;;;;;;6.63;1.08;;;13.80;58.20;;;;;;5069132;28;20033;-88
2021/03/01 10:31:21;;;;;;;3.03;1.08;;;13.90;58.00;;;;;;5050210;28;20056;-87
2021/03/01 10:33:54;;;;;;;3.10;0.90;;;14.00;57.90;;;;;;5037501;28;20497;-88
2021/03/01 10:36:21;;;;;;;1.23;0.82;;;14.00;57.80;;;;;;5051898;28;20036;-86
2021/03/01 10:38:59;;;;;;;1.15;0.75;;;14.00;57.80;;;;;;5031760;28;20044;-86
2021/03/01 10:41:30;;;;;;;6.55;1.98;;;13.90;57.80;;;;;;5049025;28;20057;-87
2021/03/01 10:44:03;;;;;;;0.98;0.22;;;13.80;57.80;;;;;;5048052;28;20505;-86
2021/03/01 10:46:30;;;;;;;4.43;1.73;;;13.90;57.90;;;;;;5049449;28;20041;-86
2021/03/01 10:48:56;;;;;;;2.58;0.70;;;14.00;57.60;;;;;;5045411;28;20037;-87
2021/03/01 10:51:22;;;;;;;5.18;1.40;;;14.00;57.30;;;;;;5049485;28;20033;-89
2021/03/01 10:53:48;;;;;;;2.13;1.25;;;14.00;57.30;;;;;;5032247;28;20045;-89
2021/03/01 10:56:14;;;;;;;4.13;1.20;;;14.10;57.20;;;;;;5045106;28;20058;-87
2021/03/01 10:58:40;;;;;;;2.08;0.90;;;14.20;57.10;;;;;;5052299;28;20025;-90
2021/03/01 11:01:07;;;;;;;1.65;1.10;;;14.30;56.90;;;;;;5053469;28;20119;-80
2021/03/01 11:03:33;;;;;;;3.92;1.30;;;14.40;56.90;;;;;;5049723;28;20025;-83
2021/03/01 11:05:59;;;;;;;3.83;1.20;;;14.50;56.50;;;;;;5049621;28;20032;-84
2021/03/01 11:08:25;;;;;;;3.65;1.58;;;14.50;56.40;;;;;;5054855;28;20028;-86
2021/03/01 11:10:51;;;;;;;3.22;1.55;;;14.50;56.40;;;;;;5051575;28;20029;-86
2021/03/01 11:13:17;;;;;;;2.10;0.47;;;14.50;56.30;;;;;;5032067;28;20045;-84
2021/03/01 11:15:44;;;;;;;0.20;0.10;;;14.50;56.40;;;;;;5053662;28;20033;-86
2021/03/01 11:18:10;;;;;;;3.67;1.52;;;14.60;56.20;;;;;;5035129;28;20025;-86
2021/03/01 11:20:36;;;;;;;5.75;1.15;;;14.50;56.00;;;;;;5050872;28;20397;-86
2021/03/01 11:23:02;;;;;;;4.30;2.25;;;14.50;56.20;;;;;;5050047;28;20048;-88
2021/03/01 11:25:28;;;;;;;3.15;0.63;;;14.60;56.20;;;;;;5050835;28;20473;-86
2021/03/01 11:27:55;;;;;;;2.83;0.90;;;14.70;56.30;;;;;;5053681;28;20501;-87
2021/03/01 11:30:21;;;;;;;1.35;0.17;;;14.80;55.90;;;;;;5051811;28;20631;-84
2021/03/01 11:32:47;;;;;;;2.67;0.90;;;14.90;55.70;;;;;;5068014;28;20041;-87
2021/03/01 11:35:13;;;;;;;1.95;0.60;;;14.90;55.80;;;;;;5040403;28;20048;-84
2021/03/01 11:37:39;;;;;;;3.70;0.95;;;15.00;55.70;;;;;;5052154;28;20037;-88
2021/03/01 11:40:06;;;;;;;7.72;1.48;;;15.00;55.60;;;;;;5045406;28;20037;-87
2021/03/01 11:42:32;;;;;;;7.18;1.58;;;15.10;55.60;;;;;;5050703;28;20505;-86
2021/03/01 11:44:58;;;;;;;1.30;0.55;;;15.20;55.60;;;;;;5034009;28;20044;-84
2021/03/01 11:47:26;;;;;;;10.35;1.17;;;15.30;55.50;;;;;;5054650;28;20728;-85
2021/03/01 11:49:52;;;;;;;6.05;0.65;;;15.40;55.30;;;;;;5031954;28;20060;-82
2021/03/01 11:52:18;;;;;;;0.43;0.25;;;15.50;55.10;;;;;;5035217;28;20025;-82
2021/03/01 11:54:44;;;;;;;1.83;0.40;;;15.60;55.00;;;;;;5046642;28;20391;-83
2021/03/01 11:57:10;;;;;;;0.75;0.30;;;15.60;54.80;;;;;;5034947;28;20037;-83
2021/03/01 11:59:36;;;;;;;3.15;0.82;;;15.70;54.80;;;;;;5050114;28;20033;-87
2021/03/01 12:02:03;;;;;;;5.65;0.90;;;15.80;54.50;;;;;;5051264;28;20044;-86
2021/03/01 12:04:29;;;;;;;0.90;0.25;;;15.90;54.50;;;;;;5057945;28;20028;-83
2021/03/01 12:06:55;;;;;;;0.88;0.60;;;16.00;54.20;;;;;;5049982;28;20036;-83
2021/03/01 12:09:21;;;;;;;2.85;0.55;;;16.10;53.80;;;;;;5034082;28;20033;-82
2021/03/01 12:11:47;;;;;;;3.72;0.63;;;16.20;53.90;;;;;;5052645;28;20037;-83
2021/03/01 12:14:13;;;;;;;0.70;0.52;;;16.20;53.80;;;;;;5051279;28;20036;-81
2021/03/01 12:16:39;;;;;;;0.20;0.08;;;16.30;53.70;;;;;;5057592;28;20032;-81
2021/03/01 12:19:05;;;;;;;3.33;0.93;;;16.40;53.50;;;;;;5052756;28;20044;-81
2021/03/01 12:21:31;;;;;;;1.85;0.70;;;16.40;53.30;;;;;;5048922;28;20033;-82
2021/03/01 12:23:57;;;;;;;0.82;0.28;;;16.40;53.30;;;;;;5053107;28;20446;-81
2021/03/01 12:26:23;;;;;;;5.90;0.70;;;16.40;53.20;;;;;;5061234;28;20025;-81
2021/03/01 12:28:49;;;;;;;13.90;1.20;;;16.50;53.10;;;;;;5049905;28;20396;-81
2021/03/01 12:31:15;;;;;;;2.65;0.95;;;16.70;53.00;;;;;;5050181;28;20040;-81
2021/03/01 12:33:41;;;;;;;0.90;0.35;;;16.80;52.80;;;;;;5050400;28;20485;-81
2021/03/01 12:36:08;;;;;;;2.42;0.70;;;16.90;52.50;;;;;;5055009;28;20044;-84
2021/03/01 12:38:34;;;;;;;0.98;0.32;;;16.90;52.20;;;;;;5050536;28;20466;-81
2021/03/01 12:41:00;;;;;;;1.58;0.63;;;16.80;52.10;;;;;;5050001;28;20032;-81
2021/03/01 12:43:26;;;;;;;0.85;0.38;;;16.80;52.20;;;;;;5050365;28;20052;-89
2021/03/01 12:45:52;;;;;;;1.33;0.25;;;16.90;52.20;;;;;;5055600;28;20021;-87
2021/03/01 12:48:18;;;;;;;4.32;0.52;;;17.00;52.00;;;;;;5056708;28;20045;-88
2021/03/01 12:50:45;;;;;;;4.35;1.50;;;17.00;51.70;;;;;;5049587;28;20631;-89
2021/03/01 12:53:11;;;;;;;2.42;1.00;;;17.10;51.70;;;;;;5033885;28;20516;-87
2021/03/01 12:55:37;;;;;;;6.72;0.30;;;17.20;51.40;;;;;;5046202;28;20032;-87
2021/03/01 12:58:03;;;;;;;1.48;0.45;;;17.30;51.30;;;;;;5052044;28;20488;-88
2021/03/01 13:00:29;;;;;;;1.80;0.77;;;17.40;51.00;;;;;;5052394;28;20029;-90
2021/03/01 13:02:56;;;;;;;2.85;0.63;;;17.50;51.00;;;;;;5043148;28;20032;-89